<?xml version="1.0" encoding="UTF-8" standalone="no" ?>
<gpx xmlns="http://www.topografix.com/GPX/1/1" xmlns:xsi="http://www.w3.org/2001/XMLSchema-instance" xsi:schemaLocation="http://www.topografix.com/GPX/1/1 http://www.topografix.com/GPX/1/1/gpx.xsd" version="1.1" creator="VisuGPX - https://www.visugpx.com">
  <metadata>
    <name>test alpinequest 1</name>
    <desc><![CDATA[Trace AlpineQuest 03/05/2022 14:09:18]]></desc>
  </metadata>
  <trk>
    <name><![CDATA[test alpinequest 1_1]]></name>
    <trkseg>
      <trkpt lat="43.63104" lon="6.93717">
        <ele>204.326</ele>
        <time>2022-05-03T12:09:18Z</time>
      </trkpt>
      <trkpt lat="43.63099" lon="6.93725">
        <ele>206.42</ele>
        <time>2022-05-03T12:09:27Z</time>
      </trkpt>
      <trkpt lat="43.63092" lon="6.93723">
        <ele>205.437</ele>
        <time>2022-05-03T12:09:33Z</time>
      </trkpt>
      <trkpt lat="43.63086" lon="6.93719">
        <ele>204.899</ele>
        <time>2022-05-03T12:09:38Z</time>
      </trkpt>
      <trkpt lat="43.63079" lon="6.93716">
        <ele>204.92</ele>
        <time>2022-05-03T12:09:43Z</time>
      </trkpt>
      <trkpt lat="43.63072" lon="6.93713">
        <ele>204.582</ele>
        <time>2022-05-03T12:09:49Z</time>
      </trkpt>
      <trkpt lat="43.63065" lon="6.93707">
        <ele>204.972</ele>
        <time>2022-05-03T12:09:54Z</time>
      </trkpt>
      <trkpt lat="43.6306" lon="6.93702">
        <ele>203.587</ele>
        <time>2022-05-03T12:09:59Z</time>
      </trkpt>
      <trkpt lat="43.63054" lon="6.93695">
        <ele>203.695</ele>
        <time>2022-05-03T12:10:05Z</time>
      </trkpt>
      <trkpt lat="43.63049" lon="6.93688">
        <ele>202.705</ele>
        <time>2022-05-03T12:10:10Z</time>
      </trkpt>
      <trkpt lat="43.63043" lon="6.93682">
        <ele>202.364</ele>
        <time>2022-05-03T12:10:15Z</time>
      </trkpt>
      <trkpt lat="43.63043" lon="6.93671">
        <ele>200.175</ele>
        <time>2022-05-03T12:10:21Z</time>
      </trkpt>
      <trkpt lat="43.63048" lon="6.9366">
        <ele>199.779</ele>
        <time>2022-05-03T12:10:26Z</time>
      </trkpt>
      <trkpt lat="43.63057" lon="6.93657">
        <ele>199.757</ele>
        <time>2022-05-03T12:10:31Z</time>
      </trkpt>
      <trkpt lat="43.63056" lon="6.93648">
        <ele>200.597</ele>
        <time>2022-05-03T12:10:37Z</time>
      </trkpt>
      <trkpt lat="43.63049" lon="6.93647">
        <ele>200.665</ele>
        <time>2022-05-03T12:10:42Z</time>
      </trkpt>
      <trkpt lat="43.63042" lon="6.93644">
        <ele>200.053</ele>
        <time>2022-05-03T12:10:47Z</time>
      </trkpt>
      <trkpt lat="43.63035" lon="6.93642">
        <ele>200.98</ele>
        <time>2022-05-03T12:10:52Z</time>
      </trkpt>
      <trkpt lat="43.63029" lon="6.93639">
        <ele>201.214</ele>
        <time>2022-05-03T12:10:57Z</time>
      </trkpt>
      <trkpt lat="43.63022" lon="6.93635">
        <ele>201.137</ele>
        <time>2022-05-03T12:11:02Z</time>
      </trkpt>
      <trkpt lat="43.63016" lon="6.93629">
        <ele>200.957</ele>
        <time>2022-05-03T12:11:07Z</time>
      </trkpt>
      <trkpt lat="43.63009" lon="6.93626">
        <ele>200.145</ele>
        <time>2022-05-03T12:11:12Z</time>
      </trkpt>
      <trkpt lat="43.63003" lon="6.9362">
        <ele>199.645</ele>
        <time>2022-05-03T12:11:17Z</time>
      </trkpt>
      <trkpt lat="43.62997" lon="6.93615">
        <ele>197.687</ele>
        <time>2022-05-03T12:11:23Z</time>
      </trkpt>
      <trkpt lat="43.6299" lon="6.9361">
        <ele>198.453</ele>
        <time>2022-05-03T12:11:29Z</time>
      </trkpt>
      <trkpt lat="43.62984" lon="6.93605">
        <ele>198.119</ele>
        <time>2022-05-03T12:11:34Z</time>
      </trkpt>
      <trkpt lat="43.62978" lon="6.93601">
        <ele>198.393</ele>
        <time>2022-05-03T12:11:39Z</time>
      </trkpt>
      <trkpt lat="43.62972" lon="6.93599">
        <ele>197.807</ele>
        <time>2022-05-03T12:11:44Z</time>
      </trkpt>
      <trkpt lat="43.62966" lon="6.93592">
        <ele>198.579</ele>
        <time>2022-05-03T12:11:50Z</time>
      </trkpt>
      <trkpt lat="43.62961" lon="6.93586">
        <ele>200.368</ele>
        <time>2022-05-03T12:11:55Z</time>
      </trkpt>
      <trkpt lat="43.62954" lon="6.93581">
        <ele>199.703</ele>
        <time>2022-05-03T12:12:00Z</time>
      </trkpt>
      <trkpt lat="43.62948" lon="6.93577">
        <ele>199.44</ele>
        <time>2022-05-03T12:12:05Z</time>
      </trkpt>
      <trkpt lat="43.62941" lon="6.93574">
        <ele>198.428</ele>
        <time>2022-05-03T12:12:10Z</time>
      </trkpt>
      <trkpt lat="43.62935" lon="6.93571">
        <ele>197.456</ele>
        <time>2022-05-03T12:12:15Z</time>
      </trkpt>
      <trkpt lat="43.62928" lon="6.93568">
        <ele>197.204</ele>
        <time>2022-05-03T12:12:20Z</time>
      </trkpt>
      <trkpt lat="43.62921" lon="6.93563">
        <ele>199.88</ele>
        <time>2022-05-03T12:12:25Z</time>
      </trkpt>
      <trkpt lat="43.62915" lon="6.93561">
        <ele>200.717</ele>
        <time>2022-05-03T12:12:30Z</time>
      </trkpt>
      <trkpt lat="43.62908" lon="6.9356">
        <ele>200.795</ele>
        <time>2022-05-03T12:12:35Z</time>
      </trkpt>
      <trkpt lat="43.62902" lon="6.93559">
        <ele>200.769</ele>
        <time>2022-05-03T12:12:40Z</time>
      </trkpt>
      <trkpt lat="43.62895" lon="6.93554">
        <ele>199.996</ele>
        <time>2022-05-03T12:12:46Z</time>
      </trkpt>
      <trkpt lat="43.62887" lon="6.93553">
        <ele>199.158</ele>
        <time>2022-05-03T12:12:52Z</time>
      </trkpt>
      <trkpt lat="43.6288" lon="6.93554">
        <ele>199.217</ele>
        <time>2022-05-03T12:12:57Z</time>
      </trkpt>
      <trkpt lat="43.62873" lon="6.93555">
        <ele>200.487</ele>
        <time>2022-05-03T12:13:04Z</time>
      </trkpt>
      <trkpt lat="43.62866" lon="6.93555">
        <ele>197.462</ele>
        <time>2022-05-03T12:13:10Z</time>
      </trkpt>
      <trkpt lat="43.62859" lon="6.93556">
        <ele>199.2</ele>
        <time>2022-05-03T12:13:16Z</time>
      </trkpt>
      <trkpt lat="43.6285" lon="6.93554">
        <ele>199.928</ele>
        <time>2022-05-03T12:13:21Z</time>
      </trkpt>
      <trkpt lat="43.62843" lon="6.93552">
        <ele>204.704</ele>
        <time>2022-05-03T12:13:26Z</time>
      </trkpt>
      <trkpt lat="43.62836" lon="6.93553">
        <ele>203.7</ele>
        <time>2022-05-03T12:13:31Z</time>
      </trkpt>
      <trkpt lat="43.62829" lon="6.93554">
        <ele>203.512</ele>
        <time>2022-05-03T12:13:36Z</time>
      </trkpt>
      <trkpt lat="43.6282" lon="6.93557">
        <ele>204.121</ele>
        <time>2022-05-03T12:13:41Z</time>
      </trkpt>
      <trkpt lat="43.62812" lon="6.93558">
        <ele>205.475</ele>
        <time>2022-05-03T12:13:47Z</time>
      </trkpt>
      <trkpt lat="43.62805" lon="6.93559">
        <ele>204.896</ele>
        <time>2022-05-03T12:13:52Z</time>
      </trkpt>
      <trkpt lat="43.62798" lon="6.9356">
        <ele>202.897</ele>
        <time>2022-05-03T12:13:57Z</time>
      </trkpt>
      <trkpt lat="43.6279" lon="6.93564">
        <ele>204.88</ele>
        <time>2022-05-03T12:14:02Z</time>
      </trkpt>
      <trkpt lat="43.62783" lon="6.93566">
        <ele>205.196</ele>
        <time>2022-05-03T12:14:07Z</time>
      </trkpt>
      <trkpt lat="43.62777" lon="6.93568">
        <ele>204.368</ele>
        <time>2022-05-03T12:14:12Z</time>
      </trkpt>
      <trkpt lat="43.62769" lon="6.93571">
        <ele>204.081</ele>
        <time>2022-05-03T12:14:17Z</time>
      </trkpt>
      <trkpt lat="43.62762" lon="6.93575">
        <ele>202.628</ele>
        <time>2022-05-03T12:14:22Z</time>
      </trkpt>
      <trkpt lat="43.62754" lon="6.93577">
        <ele>201.298</ele>
        <time>2022-05-03T12:14:28Z</time>
      </trkpt>
      <trkpt lat="43.62747" lon="6.93578">
        <ele>202.77</ele>
        <time>2022-05-03T12:14:33Z</time>
      </trkpt>
      <trkpt lat="43.6274" lon="6.93573">
        <ele>200.852</ele>
        <time>2022-05-03T12:14:38Z</time>
      </trkpt>
      <trkpt lat="43.62734" lon="6.93567">
        <ele>200.446</ele>
        <time>2022-05-03T12:14:43Z</time>
      </trkpt>
      <trkpt lat="43.62729" lon="6.93561">
        <ele>200.278</ele>
        <time>2022-05-03T12:14:48Z</time>
      </trkpt>
      <trkpt lat="43.62723" lon="6.93553">
        <ele>197.929</ele>
        <time>2022-05-03T12:14:53Z</time>
      </trkpt>
      <trkpt lat="43.62718" lon="6.93546">
        <ele>199.745</ele>
        <time>2022-05-03T12:14:58Z</time>
      </trkpt>
      <trkpt lat="43.62711" lon="6.93539">
        <ele>200.233</ele>
        <time>2022-05-03T12:15:04Z</time>
      </trkpt>
      <trkpt lat="43.62705" lon="6.93534">
        <ele>198.162</ele>
        <time>2022-05-03T12:15:09Z</time>
      </trkpt>
      <trkpt lat="43.62699" lon="6.93528">
        <ele>198.491</ele>
        <time>2022-05-03T12:15:15Z</time>
      </trkpt>
      <trkpt lat="43.62694" lon="6.93521">
        <ele>195.827</ele>
        <time>2022-05-03T12:15:21Z</time>
      </trkpt>
      <trkpt lat="43.62688" lon="6.93515">
        <ele>193.444</ele>
        <time>2022-05-03T12:15:27Z</time>
      </trkpt>
      <trkpt lat="43.62683" lon="6.93508">
        <ele>193.321</ele>
        <time>2022-05-03T12:15:32Z</time>
      </trkpt>
      <trkpt lat="43.62677" lon="6.93503">
        <ele>194.666</ele>
        <time>2022-05-03T12:15:37Z</time>
      </trkpt>
      <trkpt lat="43.62672" lon="6.93496">
        <ele>194.167</ele>
        <time>2022-05-03T12:15:43Z</time>
      </trkpt>
      <trkpt lat="43.62666" lon="6.9349">
        <ele>195.233</ele>
        <time>2022-05-03T12:15:48Z</time>
      </trkpt>
      <trkpt lat="43.62661" lon="6.93485">
        <ele>194.2</ele>
        <time>2022-05-03T12:15:53Z</time>
      </trkpt>
      <trkpt lat="43.62656" lon="6.93478">
        <ele>193.612</ele>
        <time>2022-05-03T12:15:58Z</time>
      </trkpt>
      <trkpt lat="43.62652" lon="6.93472">
        <ele>192.41</ele>
        <time>2022-05-03T12:16:03Z</time>
      </trkpt>
      <trkpt lat="43.62646" lon="6.93465">
        <ele>193.148</ele>
        <time>2022-05-03T12:16:08Z</time>
      </trkpt>
      <trkpt lat="43.62639" lon="6.93456">
        <ele>198.191</ele>
        <time>2022-05-03T12:16:13Z</time>
      </trkpt>
      <trkpt lat="43.62632" lon="6.93451">
        <ele>197.076</ele>
        <time>2022-05-03T12:16:18Z</time>
      </trkpt>
      <trkpt lat="43.62626" lon="6.93446">
        <ele>196.667</ele>
        <time>2022-05-03T12:16:23Z</time>
      </trkpt>
      <trkpt lat="43.6262" lon="6.93442">
        <ele>195.892</ele>
        <time>2022-05-03T12:16:28Z</time>
      </trkpt>
      <trkpt lat="43.62613" lon="6.93439">
        <ele>195.892</ele>
        <time>2022-05-03T12:16:34Z</time>
      </trkpt>
      <trkpt lat="43.62607" lon="6.93434">
        <ele>195.297</ele>
        <time>2022-05-03T12:16:40Z</time>
      </trkpt>
      <trkpt lat="43.626" lon="6.9343">
        <ele>197.223</ele>
        <time>2022-05-03T12:16:45Z</time>
      </trkpt>
      <trkpt lat="43.62591" lon="6.93428">
        <ele>198.171</ele>
        <time>2022-05-03T12:16:50Z</time>
      </trkpt>
      <trkpt lat="43.62583" lon="6.93427">
        <ele>198.797</ele>
        <time>2022-05-03T12:16:56Z</time>
      </trkpt>
      <trkpt lat="43.62576" lon="6.93428">
        <ele>198.925</ele>
        <time>2022-05-03T12:17:01Z</time>
      </trkpt>
      <trkpt lat="43.62569" lon="6.93428">
        <ele>200.426</ele>
        <time>2022-05-03T12:17:06Z</time>
      </trkpt>
      <trkpt lat="43.62561" lon="6.93429">
        <ele>199.557</ele>
        <time>2022-05-03T12:17:12Z</time>
      </trkpt>
      <trkpt lat="43.62553" lon="6.9343">
        <ele>198.451</ele>
        <time>2022-05-03T12:17:17Z</time>
      </trkpt>
      <trkpt lat="43.62546" lon="6.93431">
        <ele>197.4</ele>
        <time>2022-05-03T12:17:22Z</time>
      </trkpt>
      <trkpt lat="43.62539" lon="6.93434">
        <ele>194.741</ele>
        <time>2022-05-03T12:17:27Z</time>
      </trkpt>
      <trkpt lat="43.62532" lon="6.93439">
        <ele>193.76</ele>
        <time>2022-05-03T12:17:32Z</time>
      </trkpt>
      <trkpt lat="43.62525" lon="6.93441">
        <ele>192.303</ele>
        <time>2022-05-03T12:17:37Z</time>
      </trkpt>
      <trkpt lat="43.62519" lon="6.93444">
        <ele>193.212</ele>
        <time>2022-05-03T12:17:42Z</time>
      </trkpt>
      <trkpt lat="43.62511" lon="6.93447">
        <ele>193.233</ele>
        <time>2022-05-03T12:17:47Z</time>
      </trkpt>
      <trkpt lat="43.62504" lon="6.9345">
        <ele>192.859</ele>
        <time>2022-05-03T12:17:52Z</time>
      </trkpt>
      <trkpt lat="43.62498" lon="6.93456">
        <ele>194.941</ele>
        <time>2022-05-03T12:17:57Z</time>
      </trkpt>
      <trkpt lat="43.62492" lon="6.93458">
        <ele>192.024</ele>
        <time>2022-05-03T12:18:02Z</time>
      </trkpt>
      <trkpt lat="43.62485" lon="6.93461">
        <ele>192.443</ele>
        <time>2022-05-03T12:18:07Z</time>
      </trkpt>
      <trkpt lat="43.62479" lon="6.93465">
        <ele>193.485</ele>
        <time>2022-05-03T12:18:12Z</time>
      </trkpt>
      <trkpt lat="43.62475" lon="6.93458">
        <ele>192.261</ele>
        <time>2022-05-03T12:18:21Z</time>
      </trkpt>
      <trkpt lat="43.62481" lon="6.93451">
        <ele>191.409</ele>
        <time>2022-05-03T12:18:29Z</time>
      </trkpt>
      <trkpt lat="43.62486" lon="6.93445">
        <ele>192.837</ele>
        <time>2022-05-03T12:18:35Z</time>
      </trkpt>
      <trkpt lat="43.62492" lon="6.93438">
        <ele>192.353</ele>
        <time>2022-05-03T12:18:42Z</time>
      </trkpt>
      <trkpt lat="43.62495" lon="6.93428">
        <ele>193.839</ele>
        <time>2022-05-03T12:18:47Z</time>
      </trkpt>
      <trkpt lat="43.625" lon="6.9342">
        <ele>196.589</ele>
        <time>2022-05-03T12:18:52Z</time>
      </trkpt>
      <trkpt lat="43.62504" lon="6.93412">
        <ele>196.692</ele>
        <time>2022-05-03T12:18:57Z</time>
      </trkpt>
      <trkpt lat="43.6251" lon="6.93407">
        <ele>196.086</ele>
        <time>2022-05-03T12:19:02Z</time>
      </trkpt>
      <trkpt lat="43.62516" lon="6.93402">
        <ele>193.472</ele>
        <time>2022-05-03T12:19:07Z</time>
      </trkpt>
      <trkpt lat="43.62523" lon="6.93398">
        <ele>192.446</ele>
        <time>2022-05-03T12:19:12Z</time>
      </trkpt>
      <trkpt lat="43.6253" lon="6.93397">
        <ele>190.363</ele>
        <time>2022-05-03T12:19:17Z</time>
      </trkpt>
      <trkpt lat="43.62537" lon="6.93397">
        <ele>192.118</ele>
        <time>2022-05-03T12:19:22Z</time>
      </trkpt>
      <trkpt lat="43.62544" lon="6.93399">
        <ele>193.367</ele>
        <time>2022-05-03T12:19:28Z</time>
      </trkpt>
      <trkpt lat="43.62551" lon="6.934">
        <ele>193.42</ele>
        <time>2022-05-03T12:19:35Z</time>
      </trkpt>
      <trkpt lat="43.62558" lon="6.93397">
        <ele>197.52</ele>
        <time>2022-05-03T12:19:40Z</time>
      </trkpt>
      <trkpt lat="43.62565" lon="6.93396">
        <ele>196.239</ele>
        <time>2022-05-03T12:19:46Z</time>
      </trkpt>
      <trkpt lat="43.62572" lon="6.9339">
        <ele>195.454</ele>
        <time>2022-05-03T12:19:52Z</time>
      </trkpt>
      <trkpt lat="43.62579" lon="6.93387">
        <ele>196.477</ele>
        <time>2022-05-03T12:19:57Z</time>
      </trkpt>
      <trkpt lat="43.62587" lon="6.93386">
        <ele>198.31</ele>
        <time>2022-05-03T12:20:02Z</time>
      </trkpt>
      <trkpt lat="43.62593" lon="6.93384">
        <ele>198.265</ele>
        <time>2022-05-03T12:20:07Z</time>
      </trkpt>
      <trkpt lat="43.626" lon="6.93382">
        <ele>198.056</ele>
        <time>2022-05-03T12:20:12Z</time>
      </trkpt>
      <trkpt lat="43.62607" lon="6.93382">
        <ele>197.775</ele>
        <time>2022-05-03T12:20:17Z</time>
      </trkpt>
      <trkpt lat="43.62613" lon="6.9338">
        <ele>195.044</ele>
        <time>2022-05-03T12:20:22Z</time>
      </trkpt>
      <trkpt lat="43.62608" lon="6.93373">
        <ele>190.978</ele>
        <time>2022-05-03T12:20:30Z</time>
      </trkpt>
      <trkpt lat="43.62602" lon="6.93369">
        <ele>192.181</ele>
        <time>2022-05-03T12:20:36Z</time>
      </trkpt>
      <trkpt lat="43.62595" lon="6.93363">
        <ele>196.379</ele>
        <time>2022-05-03T12:20:41Z</time>
      </trkpt>
      <trkpt lat="43.62588" lon="6.93358">
        <ele>196.283</ele>
        <time>2022-05-03T12:20:46Z</time>
      </trkpt>
      <trkpt lat="43.6258" lon="6.93359">
        <ele>196.839</ele>
        <time>2022-05-03T12:20:52Z</time>
      </trkpt>
      <trkpt lat="43.62572" lon="6.93361">
        <ele>193.626</ele>
        <time>2022-05-03T12:20:58Z</time>
      </trkpt>
      <trkpt lat="43.62564" lon="6.93363">
        <ele>191.767</ele>
        <time>2022-05-03T12:21:04Z</time>
      </trkpt>
      <trkpt lat="43.62557" lon="6.93365">
        <ele>190.924</ele>
        <time>2022-05-03T12:21:10Z</time>
      </trkpt>
      <trkpt lat="43.6255" lon="6.93365">
        <ele>191.638</ele>
        <time>2022-05-03T12:21:15Z</time>
      </trkpt>
      <trkpt lat="43.62544" lon="6.93364">
        <ele>191.063</ele>
        <time>2022-05-03T12:21:20Z</time>
      </trkpt>
      <trkpt lat="43.62536" lon="6.93366">
        <ele>193.02</ele>
        <time>2022-05-03T12:21:25Z</time>
      </trkpt>
      <trkpt lat="43.62529" lon="6.93369">
        <ele>192.63</ele>
        <time>2022-05-03T12:21:30Z</time>
      </trkpt>
      <trkpt lat="43.6252" lon="6.93379">
        <ele>191.196</ele>
        <time>2022-05-03T12:21:35Z</time>
      </trkpt>
      <trkpt lat="43.62513" lon="6.93381">
        <ele>191.007</ele>
        <time>2022-05-03T12:21:40Z</time>
      </trkpt>
      <trkpt lat="43.62505" lon="6.93382">
        <ele>191.955</ele>
        <time>2022-05-03T12:21:45Z</time>
      </trkpt>
      <trkpt lat="43.62499" lon="6.93385">
        <ele>192.288</ele>
        <time>2022-05-03T12:21:50Z</time>
      </trkpt>
      <trkpt lat="43.62492" lon="6.93387">
        <ele>193.67</ele>
        <time>2022-05-03T12:22:12Z</time>
      </trkpt>
      <trkpt lat="43.62485" lon="6.93389">
        <ele>193.253</ele>
        <time>2022-05-03T12:22:18Z</time>
      </trkpt>
      <trkpt lat="43.62478" lon="6.93391">
        <ele>190.203</ele>
        <time>2022-05-03T12:22:25Z</time>
      </trkpt>
      <trkpt lat="43.62473" lon="6.93398">
        <ele>191.551</ele>
        <time>2022-05-03T12:22:31Z</time>
      </trkpt>
      <trkpt lat="43.62469" lon="6.93406">
        <ele>190.376</ele>
        <time>2022-05-03T12:22:36Z</time>
      </trkpt>
      <trkpt lat="43.62463" lon="6.93413">
        <ele>190.678</ele>
        <time>2022-05-03T12:22:41Z</time>
      </trkpt>
      <trkpt lat="43.62458" lon="6.93419">
        <ele>192.084</ele>
        <time>2022-05-03T12:22:46Z</time>
      </trkpt>
      <trkpt lat="43.62451" lon="6.93424">
        <ele>191.931</ele>
        <time>2022-05-03T12:22:52Z</time>
      </trkpt>
      <trkpt lat="43.62445" lon="6.93432">
        <ele>192.708</ele>
        <time>2022-05-03T12:22:57Z</time>
      </trkpt>
      <trkpt lat="43.62439" lon="6.93431">
        <ele>191.191</ele>
        <time>2022-05-03T12:23:02Z</time>
      </trkpt>
      <trkpt lat="43.62433" lon="6.93429">
        <ele>191.55</ele>
        <time>2022-05-03T12:23:08Z</time>
      </trkpt>
      <trkpt lat="43.62429" lon="6.9342">
        <ele>188.168</ele>
        <time>2022-05-03T12:23:16Z</time>
      </trkpt>
      <trkpt lat="43.62434" lon="6.93412">
        <ele>187.401</ele>
        <time>2022-05-03T12:23:21Z</time>
      </trkpt>
      <trkpt lat="43.62439" lon="6.93406">
        <ele>187.918</ele>
        <time>2022-05-03T12:23:26Z</time>
      </trkpt>
      <trkpt lat="43.62445" lon="6.93401">
        <ele>187.541</ele>
        <time>2022-05-03T12:23:31Z</time>
      </trkpt>
      <trkpt lat="43.6245" lon="6.93395">
        <ele>186.836</ele>
        <time>2022-05-03T12:23:36Z</time>
      </trkpt>
      <trkpt lat="43.62456" lon="6.93391">
        <ele>186.21</ele>
        <time>2022-05-03T12:23:41Z</time>
      </trkpt>
      <trkpt lat="43.62462" lon="6.9339">
        <ele>186.798</ele>
        <time>2022-05-03T12:23:46Z</time>
      </trkpt>
      <trkpt lat="43.62469" lon="6.93389">
        <ele>187.816</ele>
        <time>2022-05-03T12:23:51Z</time>
      </trkpt>
      <trkpt lat="43.62475" lon="6.93393">
        <ele>189.966</ele>
        <time>2022-05-03T12:23:57Z</time>
      </trkpt>
      <trkpt lat="43.62482" lon="6.93394">
        <ele>188.262</ele>
        <time>2022-05-03T12:24:03Z</time>
      </trkpt>
      <trkpt lat="43.6249" lon="6.93393">
        <ele>188.642</ele>
        <time>2022-05-03T12:24:09Z</time>
      </trkpt>
      <trkpt lat="43.62497" lon="6.93391">
        <ele>186.54</ele>
        <time>2022-05-03T12:24:14Z</time>
      </trkpt>
      <trkpt lat="43.62505" lon="6.93387">
        <ele>186.66</ele>
        <time>2022-05-03T12:24:20Z</time>
      </trkpt>
      <trkpt lat="43.62512" lon="6.93385">
        <ele>187.456</ele>
        <time>2022-05-03T12:24:25Z</time>
      </trkpt>
      <trkpt lat="43.62519" lon="6.93383">
        <ele>186.137</ele>
        <time>2022-05-03T12:24:30Z</time>
      </trkpt>
      <trkpt lat="43.62528" lon="6.93379">
        <ele>188.506</ele>
        <time>2022-05-03T12:24:36Z</time>
      </trkpt>
      <trkpt lat="43.62535" lon="6.93377">
        <ele>188.596</ele>
        <time>2022-05-03T12:24:41Z</time>
      </trkpt>
      <trkpt lat="43.62543" lon="6.93378">
        <ele>190.704</ele>
        <time>2022-05-03T12:24:47Z</time>
      </trkpt>
      <trkpt lat="43.6255" lon="6.93379">
        <ele>192.35</ele>
        <time>2022-05-03T12:24:53Z</time>
      </trkpt>
      <trkpt lat="43.62557" lon="6.93375">
        <ele>190.856</ele>
        <time>2022-05-03T12:24:58Z</time>
      </trkpt>
      <trkpt lat="43.62564" lon="6.9337">
        <ele>191.622</ele>
        <time>2022-05-03T12:25:03Z</time>
      </trkpt>
      <trkpt lat="43.62571" lon="6.93368">
        <ele>192.593</ele>
        <time>2022-05-03T12:25:08Z</time>
      </trkpt>
      <trkpt lat="43.62577" lon="6.93366">
        <ele>194.283</ele>
        <time>2022-05-03T12:25:13Z</time>
      </trkpt>
      <trkpt lat="43.62584" lon="6.93364">
        <ele>194.438</ele>
        <time>2022-05-03T12:25:18Z</time>
      </trkpt>
      <trkpt lat="43.62592" lon="6.93366">
        <ele>193.25</ele>
        <time>2022-05-03T12:25:24Z</time>
      </trkpt>
      <trkpt lat="43.62598" lon="6.9337">
        <ele>191.583</ele>
        <time>2022-05-03T12:25:30Z</time>
      </trkpt>
      <trkpt lat="43.62605" lon="6.93373">
        <ele>191.684</ele>
        <time>2022-05-03T12:25:35Z</time>
      </trkpt>
      <trkpt lat="43.62611" lon="6.93376">
        <ele>191.738</ele>
        <time>2022-05-03T12:25:40Z</time>
      </trkpt>
      <trkpt lat="43.62617" lon="6.9338">
        <ele>190.735</ele>
        <time>2022-05-03T12:25:45Z</time>
      </trkpt>
      <trkpt lat="43.62624" lon="6.93384">
        <ele>190.245</ele>
        <time>2022-05-03T12:25:50Z</time>
      </trkpt>
      <trkpt lat="43.6263" lon="6.9339">
        <ele>189.557</ele>
        <time>2022-05-03T12:25:56Z</time>
      </trkpt>
      <trkpt lat="43.62636" lon="6.93395">
        <ele>191.755</ele>
        <time>2022-05-03T12:26:01Z</time>
      </trkpt>
      <trkpt lat="43.62642" lon="6.93399">
        <ele>189.678</ele>
        <time>2022-05-03T12:26:06Z</time>
      </trkpt>
      <trkpt lat="43.62649" lon="6.93405">
        <ele>189.39</ele>
        <time>2022-05-03T12:26:11Z</time>
      </trkpt>
      <trkpt lat="43.62656" lon="6.93409">
        <ele>188.626</ele>
        <time>2022-05-03T12:26:16Z</time>
      </trkpt>
      <trkpt lat="43.62662" lon="6.93418">
        <ele>189.066</ele>
        <time>2022-05-03T12:26:21Z</time>
      </trkpt>
      <trkpt lat="43.62668" lon="6.93424">
        <ele>188.255</ele>
        <time>2022-05-03T12:26:26Z</time>
      </trkpt>
      <trkpt lat="43.62674" lon="6.93429">
        <ele>187.322</ele>
        <time>2022-05-03T12:26:31Z</time>
      </trkpt>
      <trkpt lat="43.62681" lon="6.93433">
        <ele>186.278</ele>
        <time>2022-05-03T12:26:36Z</time>
      </trkpt>
      <trkpt lat="43.62687" lon="6.93437">
        <ele>186.456</ele>
        <time>2022-05-03T12:26:41Z</time>
      </trkpt>
      <trkpt lat="43.62694" lon="6.93442">
        <ele>187.345</ele>
        <time>2022-05-03T12:26:46Z</time>
      </trkpt>
      <trkpt lat="43.627" lon="6.93448">
        <ele>191.135</ele>
        <time>2022-05-03T12:26:52Z</time>
      </trkpt>
      <trkpt lat="43.62706" lon="6.93455">
        <ele>191.261</ele>
        <time>2022-05-03T12:26:59Z</time>
      </trkpt>
      <trkpt lat="43.62711" lon="6.93461">
        <ele>190.107</ele>
        <time>2022-05-03T12:27:05Z</time>
      </trkpt>
      <trkpt lat="43.62715" lon="6.93469">
        <ele>189.412</ele>
        <time>2022-05-03T12:27:11Z</time>
      </trkpt>
      <trkpt lat="43.62729" lon="6.93472">
        <ele>189.429</ele>
        <time>2022-05-03T12:27:16Z</time>
      </trkpt>
      <trkpt lat="43.62737" lon="6.93475">
        <ele>188.923</ele>
        <time>2022-05-03T12:27:21Z</time>
      </trkpt>
      <trkpt lat="43.62743" lon="6.93478">
        <ele>193.703</ele>
        <time>2022-05-03T12:27:26Z</time>
      </trkpt>
      <trkpt lat="43.6275" lon="6.93483">
        <ele>193.456</ele>
        <time>2022-05-03T12:27:32Z</time>
      </trkpt>
      <trkpt lat="43.62755" lon="6.93491">
        <ele>192.987</ele>
        <time>2022-05-03T12:27:39Z</time>
      </trkpt>
      <trkpt lat="43.62764" lon="6.93492">
        <ele>194.8</ele>
        <time>2022-05-03T12:27:44Z</time>
      </trkpt>
      <trkpt lat="43.62769" lon="6.93487">
        <ele>194.497</ele>
        <time>2022-05-03T12:27:49Z</time>
      </trkpt>
      <trkpt lat="43.62775" lon="6.93482">
        <ele>194.271</ele>
        <time>2022-05-03T12:27:55Z</time>
      </trkpt>
      <trkpt lat="43.6278" lon="6.93474">
        <ele>196.007</ele>
        <time>2022-05-03T12:28:00Z</time>
      </trkpt>
      <trkpt lat="43.62785" lon="6.93467">
        <ele>194.789</ele>
        <time>2022-05-03T12:28:06Z</time>
      </trkpt>
      <trkpt lat="43.62788" lon="6.93458">
        <ele>197.483</ele>
        <time>2022-05-03T12:28:11Z</time>
      </trkpt>
      <trkpt lat="43.62789" lon="6.93448">
        <ele>198.824</ele>
        <time>2022-05-03T12:28:17Z</time>
      </trkpt>
      <trkpt lat="43.62787" lon="6.93439">
        <ele>195.012</ele>
        <time>2022-05-03T12:28:25Z</time>
      </trkpt>
      <trkpt lat="43.6279" lon="6.93431">
        <ele>191.397</ele>
        <time>2022-05-03T12:28:32Z</time>
      </trkpt>
      <trkpt lat="43.62795" lon="6.93423">
        <ele>188.67</ele>
        <time>2022-05-03T12:28:38Z</time>
      </trkpt>
      <trkpt lat="43.62802" lon="6.93423">
        <ele>186.771</ele>
        <time>2022-05-03T12:28:43Z</time>
      </trkpt>
      <trkpt lat="43.62809" lon="6.93421">
        <ele>186.351</ele>
        <time>2022-05-03T12:28:49Z</time>
      </trkpt>
      <trkpt lat="43.62816" lon="6.93423">
        <ele>183.126</ele>
        <time>2022-05-03T12:28:55Z</time>
      </trkpt>
      <trkpt lat="43.62823" lon="6.93426">
        <ele>183.334</ele>
        <time>2022-05-03T12:29:01Z</time>
      </trkpt>
      <trkpt lat="43.6283" lon="6.93428">
        <ele>180.72</ele>
        <time>2022-05-03T12:29:06Z</time>
      </trkpt>
      <trkpt lat="43.62836" lon="6.93432">
        <ele>182.22</ele>
        <time>2022-05-03T12:29:11Z</time>
      </trkpt>
      <trkpt lat="43.62843" lon="6.93433">
        <ele>184.667</ele>
        <time>2022-05-03T12:29:16Z</time>
      </trkpt>
      <trkpt lat="43.62852" lon="6.93433">
        <ele>186.196</ele>
        <time>2022-05-03T12:29:21Z</time>
      </trkpt>
      <trkpt lat="43.6286" lon="6.93436">
        <ele>190.202</ele>
        <time>2022-05-03T12:29:26Z</time>
      </trkpt>
      <trkpt lat="43.62868" lon="6.93438">
        <ele>189.19</ele>
        <time>2022-05-03T12:29:31Z</time>
      </trkpt>
      <trkpt lat="43.62876" lon="6.9344">
        <ele>187.57</ele>
        <time>2022-05-03T12:29:36Z</time>
      </trkpt>
      <trkpt lat="43.62883" lon="6.93443">
        <ele>185.266</ele>
        <time>2022-05-03T12:29:41Z</time>
      </trkpt>
      <trkpt lat="43.62891" lon="6.93445">
        <ele>184.924</ele>
        <time>2022-05-03T12:29:46Z</time>
      </trkpt>
      <trkpt lat="43.62899" lon="6.93447">
        <ele>182.463</ele>
        <time>2022-05-03T12:29:51Z</time>
      </trkpt>
      <trkpt lat="43.62907" lon="6.93449">
        <ele>179.642</ele>
        <time>2022-05-03T12:29:56Z</time>
      </trkpt>
      <trkpt lat="43.62915" lon="6.93452">
        <ele>177.188</ele>
        <time>2022-05-03T12:30:01Z</time>
      </trkpt>
      <trkpt lat="43.62922" lon="6.93456">
        <ele>174.469</ele>
        <time>2022-05-03T12:30:06Z</time>
      </trkpt>
      <trkpt lat="43.62927" lon="6.93462">
        <ele>174.157</ele>
        <time>2022-05-03T12:30:11Z</time>
      </trkpt>
      <trkpt lat="43.62933" lon="6.93469">
        <ele>172.416</ele>
        <time>2022-05-03T12:30:17Z</time>
      </trkpt>
      <trkpt lat="43.6294" lon="6.93473">
        <ele>174.694</ele>
        <time>2022-05-03T12:30:24Z</time>
      </trkpt>
      <trkpt lat="43.62946" lon="6.93476">
        <ele>175.634</ele>
        <time>2022-05-03T12:30:30Z</time>
      </trkpt>
      <trkpt lat="43.62953" lon="6.93479">
        <ele>178.972</ele>
        <time>2022-05-03T12:30:37Z</time>
      </trkpt>
      <trkpt lat="43.62959" lon="6.93484">
        <ele>178.507</ele>
        <time>2022-05-03T12:30:44Z</time>
      </trkpt>
      <trkpt lat="43.62965" lon="6.93488">
        <ele>178.249</ele>
        <time>2022-05-03T12:30:50Z</time>
      </trkpt>
      <trkpt lat="43.62972" lon="6.93491">
        <ele>179.012</ele>
        <time>2022-05-03T12:30:55Z</time>
      </trkpt>
      <trkpt lat="43.62979" lon="6.93493">
        <ele>182.235</ele>
        <time>2022-05-03T12:31:00Z</time>
      </trkpt>
      <trkpt lat="43.62987" lon="6.93498">
        <ele>183.178</ele>
        <time>2022-05-03T12:31:05Z</time>
      </trkpt>
      <trkpt lat="43.62994" lon="6.93501">
        <ele>183.544</ele>
        <time>2022-05-03T12:31:10Z</time>
      </trkpt>
      <trkpt lat="43.63" lon="6.93505">
        <ele>183.68</ele>
        <time>2022-05-03T12:31:15Z</time>
      </trkpt>
      <trkpt lat="43.63007" lon="6.93509">
        <ele>185.131</ele>
        <time>2022-05-03T12:31:21Z</time>
      </trkpt>
      <trkpt lat="43.63013" lon="6.93514">
        <ele>185.585</ele>
        <time>2022-05-03T12:31:27Z</time>
      </trkpt>
      <trkpt lat="43.63019" lon="6.93519">
        <ele>184.985</ele>
        <time>2022-05-03T12:31:33Z</time>
      </trkpt>
      <trkpt lat="43.63026" lon="6.93523">
        <ele>186.719</ele>
        <time>2022-05-03T12:31:38Z</time>
      </trkpt>
      <trkpt lat="43.63033" lon="6.93527">
        <ele>189.796</ele>
        <time>2022-05-03T12:31:44Z</time>
      </trkpt>
      <trkpt lat="43.63039" lon="6.93534">
        <ele>187.867</ele>
        <time>2022-05-03T12:31:50Z</time>
      </trkpt>
      <trkpt lat="43.63045" lon="6.93537">
        <ele>191.597</ele>
        <time>2022-05-03T12:31:55Z</time>
      </trkpt>
      <trkpt lat="43.63048" lon="6.93544">
        <ele>193.575</ele>
        <time>2022-05-03T12:32:01Z</time>
      </trkpt>
      <trkpt lat="43.63043" lon="6.9355">
        <ele>193.779</ele>
        <time>2022-05-03T12:32:07Z</time>
      </trkpt>
      <trkpt lat="43.63036" lon="6.93552">
        <ele>196.731</ele>
        <time>2022-05-03T12:32:13Z</time>
      </trkpt>
      <trkpt lat="43.63029" lon="6.93552">
        <ele>198.155</ele>
        <time>2022-05-03T12:32:19Z</time>
      </trkpt>
      <trkpt lat="43.63022" lon="6.93553">
        <ele>197.092</ele>
        <time>2022-05-03T12:32:26Z</time>
      </trkpt>
      <trkpt lat="43.63014" lon="6.93552">
        <ele>198.011</ele>
        <time>2022-05-03T12:32:32Z</time>
      </trkpt>
      <trkpt lat="43.63008" lon="6.9355">
        <ele>198.677</ele>
        <time>2022-05-03T12:32:38Z</time>
      </trkpt>
      <trkpt lat="43.63001" lon="6.93548">
        <ele>196.955</ele>
        <time>2022-05-03T12:32:43Z</time>
      </trkpt>
      <trkpt lat="43.62994" lon="6.93546">
        <ele>198.475</ele>
        <time>2022-05-03T12:32:49Z</time>
      </trkpt>
      <trkpt lat="43.62987" lon="6.93546">
        <ele>198.15</ele>
        <time>2022-05-03T12:32:54Z</time>
      </trkpt>
      <trkpt lat="43.6298" lon="6.93544">
        <ele>197.428</ele>
        <time>2022-05-03T12:32:59Z</time>
      </trkpt>
      <trkpt lat="43.62973" lon="6.93541">
        <ele>196.958</ele>
        <time>2022-05-03T12:33:04Z</time>
      </trkpt>
      <trkpt lat="43.62967" lon="6.93539">
        <ele>193.602</ele>
        <time>2022-05-03T12:33:09Z</time>
      </trkpt>
      <trkpt lat="43.6296" lon="6.93535">
        <ele>193.503</ele>
        <time>2022-05-03T12:33:14Z</time>
      </trkpt>
      <trkpt lat="43.62953" lon="6.93531">
        <ele>192.284</ele>
        <time>2022-05-03T12:33:19Z</time>
      </trkpt>
      <trkpt lat="43.62946" lon="6.93528">
        <ele>195.022</ele>
        <time>2022-05-03T12:33:24Z</time>
      </trkpt>
      <trkpt lat="43.62938" lon="6.93525">
        <ele>197.211</ele>
        <time>2022-05-03T12:33:29Z</time>
      </trkpt>
      <trkpt lat="43.62931" lon="6.93521">
        <ele>194.511</ele>
        <time>2022-05-03T12:33:34Z</time>
      </trkpt>
      <trkpt lat="43.62926" lon="6.93516">
        <ele>193.052</ele>
        <time>2022-05-03T12:33:39Z</time>
      </trkpt>
      <trkpt lat="43.62919" lon="6.93513">
        <ele>192.607</ele>
        <time>2022-05-03T12:33:44Z</time>
      </trkpt>
      <trkpt lat="43.62911" lon="6.93509">
        <ele>189.772</ele>
        <time>2022-05-03T12:33:49Z</time>
      </trkpt>
      <trkpt lat="43.62905" lon="6.93504">
        <ele>191.789</ele>
        <time>2022-05-03T12:33:54Z</time>
      </trkpt>
      <trkpt lat="43.62897" lon="6.93502">
        <ele>192.594</ele>
        <time>2022-05-03T12:33:59Z</time>
      </trkpt>
      <trkpt lat="43.62889" lon="6.93499">
        <ele>193.003</ele>
        <time>2022-05-03T12:34:04Z</time>
      </trkpt>
      <trkpt lat="43.6288" lon="6.93497">
        <ele>196.909</ele>
        <time>2022-05-03T12:34:09Z</time>
      </trkpt>
      <trkpt lat="43.62873" lon="6.93495">
        <ele>196.437</ele>
        <time>2022-05-03T12:34:14Z</time>
      </trkpt>
      <trkpt lat="43.62866" lon="6.93493">
        <ele>196.035</ele>
        <time>2022-05-03T12:34:19Z</time>
      </trkpt>
      <trkpt lat="43.62858" lon="6.93493">
        <ele>195.337</ele>
        <time>2022-05-03T12:34:24Z</time>
      </trkpt>
      <trkpt lat="43.62851" lon="6.93491">
        <ele>194.752</ele>
        <time>2022-05-03T12:34:29Z</time>
      </trkpt>
      <trkpt lat="43.62843" lon="6.93493">
        <ele>193.139</ele>
        <time>2022-05-03T12:34:34Z</time>
      </trkpt>
      <trkpt lat="43.62835" lon="6.93493">
        <ele>195.474</ele>
        <time>2022-05-03T12:34:39Z</time>
      </trkpt>
      <trkpt lat="43.62827" lon="6.93493">
        <ele>195.635</ele>
        <time>2022-05-03T12:34:44Z</time>
      </trkpt>
      <trkpt lat="43.62819" lon="6.93495">
        <ele>193.858</ele>
        <time>2022-05-03T12:34:49Z</time>
      </trkpt>
      <trkpt lat="43.6281" lon="6.93497">
        <ele>194.677</ele>
        <time>2022-05-03T12:34:54Z</time>
      </trkpt>
      <trkpt lat="43.62803" lon="6.93496">
        <ele>194.679</ele>
        <time>2022-05-03T12:34:59Z</time>
      </trkpt>
      <trkpt lat="43.62794" lon="6.93496">
        <ele>195.905</ele>
        <time>2022-05-03T12:35:04Z</time>
      </trkpt>
      <trkpt lat="43.62787" lon="6.93494">
        <ele>196.689</ele>
        <time>2022-05-03T12:35:09Z</time>
      </trkpt>
      <trkpt lat="43.6278" lon="6.93493">
        <ele>195.995</ele>
        <time>2022-05-03T12:35:14Z</time>
      </trkpt>
      <trkpt lat="43.62772" lon="6.93491">
        <ele>194.789</ele>
        <time>2022-05-03T12:35:19Z</time>
      </trkpt>
      <trkpt lat="43.62765" lon="6.9349">
        <ele>196.399</ele>
        <time>2022-05-03T12:35:24Z</time>
      </trkpt>
      <trkpt lat="43.62758" lon="6.93487">
        <ele>198.281</ele>
        <time>2022-05-03T12:35:29Z</time>
      </trkpt>
      <trkpt lat="43.62751" lon="6.93483">
        <ele>196.599</ele>
        <time>2022-05-03T12:35:34Z</time>
      </trkpt>
      <trkpt lat="43.62745" lon="6.9348">
        <ele>196.133</ele>
        <time>2022-05-03T12:35:39Z</time>
      </trkpt>
      <trkpt lat="43.62738" lon="6.93476">
        <ele>196.796</ele>
        <time>2022-05-03T12:35:44Z</time>
      </trkpt>
      <trkpt lat="43.62732" lon="6.9347">
        <ele>194.838</ele>
        <time>2022-05-03T12:35:50Z</time>
      </trkpt>
      <trkpt lat="43.62726" lon="6.93465">
        <ele>193.684</ele>
        <time>2022-05-03T12:35:56Z</time>
      </trkpt>
      <trkpt lat="43.6272" lon="6.9346">
        <ele>193.771</ele>
        <time>2022-05-03T12:36:01Z</time>
      </trkpt>
      <trkpt lat="43.62715" lon="6.93455">
        <ele>192.988</ele>
        <time>2022-05-03T12:36:06Z</time>
      </trkpt>
      <trkpt lat="43.62707" lon="6.9345">
        <ele>191.714</ele>
        <time>2022-05-03T12:36:11Z</time>
      </trkpt>
      <trkpt lat="43.627" lon="6.93444">
        <ele>192.484</ele>
        <time>2022-05-03T12:36:16Z</time>
      </trkpt>
      <trkpt lat="43.62695" lon="6.93439">
        <ele>192.994</ele>
        <time>2022-05-03T12:36:21Z</time>
      </trkpt>
      <trkpt lat="43.6269" lon="6.93433">
        <ele>194.45</ele>
        <time>2022-05-03T12:36:26Z</time>
      </trkpt>
      <trkpt lat="43.62683" lon="6.93428">
        <ele>193.67</ele>
        <time>2022-05-03T12:36:32Z</time>
      </trkpt>
      <trkpt lat="43.62676" lon="6.93424">
        <ele>195.374</ele>
        <time>2022-05-03T12:36:37Z</time>
      </trkpt>
      <trkpt lat="43.62669" lon="6.93418">
        <ele>196.686</ele>
        <time>2022-05-03T12:36:42Z</time>
      </trkpt>
      <trkpt lat="43.62662" lon="6.93413">
        <ele>196.397</ele>
        <time>2022-05-03T12:36:47Z</time>
      </trkpt>
      <trkpt lat="43.62657" lon="6.93409">
        <ele>197.478</ele>
        <time>2022-05-03T12:36:52Z</time>
      </trkpt>
      <trkpt lat="43.62651" lon="6.93403">
        <ele>196.815</ele>
        <time>2022-05-03T12:36:57Z</time>
      </trkpt>
      <trkpt lat="43.62645" lon="6.93396">
        <ele>198.712</ele>
        <time>2022-05-03T12:37:02Z</time>
      </trkpt>
      <trkpt lat="43.62638" lon="6.93391">
        <ele>196.399</ele>
        <time>2022-05-03T12:37:07Z</time>
      </trkpt>
      <trkpt lat="43.62632" lon="6.93385">
        <ele>195.773</ele>
        <time>2022-05-03T12:37:12Z</time>
      </trkpt>
      <trkpt lat="43.62625" lon="6.9338">
        <ele>195.693</ele>
        <time>2022-05-03T12:37:17Z</time>
      </trkpt>
      <trkpt lat="43.62617" lon="6.93379">
        <ele>195.91</ele>
        <time>2022-05-03T12:37:22Z</time>
      </trkpt>
      <trkpt lat="43.62613" lon="6.93369">
        <ele>197.784</ele>
        <time>2022-05-03T12:37:27Z</time>
      </trkpt>
      <trkpt lat="43.62606" lon="6.93366">
        <ele>195.777</ele>
        <time>2022-05-03T12:37:32Z</time>
      </trkpt>
      <trkpt lat="43.62599" lon="6.93366">
        <ele>193.61</ele>
        <time>2022-05-03T12:37:37Z</time>
      </trkpt>
      <trkpt lat="43.6259" lon="6.93362">
        <ele>193.886</ele>
        <time>2022-05-03T12:37:42Z</time>
      </trkpt>
      <trkpt lat="43.62583" lon="6.93359">
        <ele>195.366</ele>
        <time>2022-05-03T12:37:47Z</time>
      </trkpt>
      <trkpt lat="43.62576" lon="6.93359">
        <ele>196.887</ele>
        <time>2022-05-03T12:37:52Z</time>
      </trkpt>
      <trkpt lat="43.62569" lon="6.93361">
        <ele>196.381</ele>
        <time>2022-05-03T12:37:57Z</time>
      </trkpt>
      <trkpt lat="43.62561" lon="6.93365">
        <ele>195.309</ele>
        <time>2022-05-03T12:38:02Z</time>
      </trkpt>
      <trkpt lat="43.62555" lon="6.93367">
        <ele>194.577</ele>
        <time>2022-05-03T12:38:07Z</time>
      </trkpt>
      <trkpt lat="43.62548" lon="6.93368">
        <ele>194.988</ele>
        <time>2022-05-03T12:38:12Z</time>
      </trkpt>
      <trkpt lat="43.62541" lon="6.93368">
        <ele>193.267</ele>
        <time>2022-05-03T12:38:17Z</time>
      </trkpt>
      <trkpt lat="43.62534" lon="6.9337">
        <ele>190.447</ele>
        <time>2022-05-03T12:38:22Z</time>
      </trkpt>
      <trkpt lat="43.62526" lon="6.93372">
        <ele>192.076</ele>
        <time>2022-05-03T12:38:27Z</time>
      </trkpt>
      <trkpt lat="43.62519" lon="6.93376">
        <ele>191.754</ele>
        <time>2022-05-03T12:38:32Z</time>
      </trkpt>
      <trkpt lat="43.62512" lon="6.93378">
        <ele>189.913</ele>
        <time>2022-05-03T12:38:37Z</time>
      </trkpt>
      <trkpt lat="43.62504" lon="6.93381">
        <ele>191.317</ele>
        <time>2022-05-03T12:38:42Z</time>
      </trkpt>
      <trkpt lat="43.62497" lon="6.93383">
        <ele>196.876</ele>
        <time>2022-05-03T12:38:48Z</time>
      </trkpt>
      <trkpt lat="43.6249" lon="6.93384">
        <ele>195.877</ele>
        <time>2022-05-03T12:38:53Z</time>
      </trkpt>
      <trkpt lat="43.62482" lon="6.93384">
        <ele>196.408</ele>
        <time>2022-05-03T12:38:58Z</time>
      </trkpt>
      <trkpt lat="43.62477" lon="6.93391">
        <ele>196.543</ele>
        <time>2022-05-03T12:39:03Z</time>
      </trkpt>
      <trkpt lat="43.62482" lon="6.93398">
        <ele>197.448</ele>
        <time>2022-05-03T12:39:08Z</time>
      </trkpt>
      <trkpt lat="43.62489" lon="6.93404">
        <ele>194.093</ele>
        <time>2022-05-03T12:39:13Z</time>
      </trkpt>
      <trkpt lat="43.62495" lon="6.93411">
        <ele>193.924</ele>
        <time>2022-05-03T12:39:18Z</time>
      </trkpt>
      <trkpt lat="43.62501" lon="6.93416">
        <ele>196.965</ele>
        <time>2022-05-03T12:39:23Z</time>
      </trkpt>
      <trkpt lat="43.62499" lon="6.93425">
        <ele>197.714</ele>
        <time>2022-05-03T12:39:29Z</time>
      </trkpt>
      <trkpt lat="43.62494" lon="6.93433">
        <ele>198.571</ele>
        <time>2022-05-03T12:39:34Z</time>
      </trkpt>
      <trkpt lat="43.62489" lon="6.9344">
        <ele>198.365</ele>
        <time>2022-05-03T12:39:39Z</time>
      </trkpt>
      <trkpt lat="43.62483" lon="6.93446">
        <ele>197.713</ele>
        <time>2022-05-03T12:39:44Z</time>
      </trkpt>
      <trkpt lat="43.62477" lon="6.93452">
        <ele>200.69</ele>
        <time>2022-05-03T12:39:49Z</time>
      </trkpt>
      <trkpt lat="43.62473" lon="6.93459">
        <ele>199.664</ele>
        <time>2022-05-03T12:39:54Z</time>
      </trkpt>
      <trkpt lat="43.6247" lon="6.93468">
        <ele>199.751</ele>
        <time>2022-05-03T12:39:59Z</time>
      </trkpt>
      <trkpt lat="43.62478" lon="6.9347">
        <ele>200.539</ele>
        <time>2022-05-03T12:40:04Z</time>
      </trkpt>
      <trkpt lat="43.62485" lon="6.93466">
        <ele>198.45</ele>
        <time>2022-05-03T12:40:09Z</time>
      </trkpt>
      <trkpt lat="43.62491" lon="6.9346">
        <ele>197.79</ele>
        <time>2022-05-03T12:40:14Z</time>
      </trkpt>
      <trkpt lat="43.62497" lon="6.93456">
        <ele>198.02</ele>
        <time>2022-05-03T12:40:19Z</time>
      </trkpt>
      <trkpt lat="43.62503" lon="6.93451">
        <ele>199.022</ele>
        <time>2022-05-03T12:40:24Z</time>
      </trkpt>
      <trkpt lat="43.62509" lon="6.93448">
        <ele>198.793</ele>
        <time>2022-05-03T12:40:29Z</time>
      </trkpt>
      <trkpt lat="43.62516" lon="6.93444">
        <ele>198.602</ele>
        <time>2022-05-03T12:40:34Z</time>
      </trkpt>
      <trkpt lat="43.62523" lon="6.93441">
        <ele>197.753</ele>
        <time>2022-05-03T12:40:39Z</time>
      </trkpt>
      <trkpt lat="43.6253" lon="6.93438">
        <ele>199.554</ele>
        <time>2022-05-03T12:40:44Z</time>
      </trkpt>
      <trkpt lat="43.62538" lon="6.93436">
        <ele>200.269</ele>
        <time>2022-05-03T12:40:49Z</time>
      </trkpt>
      <trkpt lat="43.62544" lon="6.93435">
        <ele>199.696</ele>
        <time>2022-05-03T12:40:54Z</time>
      </trkpt>
      <trkpt lat="43.62552" lon="6.93434">
        <ele>199.878</ele>
        <time>2022-05-03T12:41:00Z</time>
      </trkpt>
      <trkpt lat="43.6256" lon="6.93433">
        <ele>198.378</ele>
        <time>2022-05-03T12:41:05Z</time>
      </trkpt>
      <trkpt lat="43.62567" lon="6.93431">
        <ele>197.09</ele>
        <time>2022-05-03T12:41:10Z</time>
      </trkpt>
      <trkpt lat="43.62575" lon="6.93432">
        <ele>199.436</ele>
        <time>2022-05-03T12:41:16Z</time>
      </trkpt>
      <trkpt lat="43.62581" lon="6.93432">
        <ele>200.432</ele>
        <time>2022-05-03T12:41:21Z</time>
      </trkpt>
      <trkpt lat="43.62589" lon="6.93432">
        <ele>202.181</ele>
        <time>2022-05-03T12:41:26Z</time>
      </trkpt>
      <trkpt lat="43.62597" lon="6.93433">
        <ele>202.936</ele>
        <time>2022-05-03T12:41:31Z</time>
      </trkpt>
      <trkpt lat="43.62604" lon="6.93436">
        <ele>201.565</ele>
        <time>2022-05-03T12:41:36Z</time>
      </trkpt>
      <trkpt lat="43.62611" lon="6.93439">
        <ele>199.4</ele>
        <time>2022-05-03T12:41:41Z</time>
      </trkpt>
      <trkpt lat="43.62619" lon="6.93444">
        <ele>201.89</ele>
        <time>2022-05-03T12:41:46Z</time>
      </trkpt>
      <trkpt lat="43.62626" lon="6.93447">
        <ele>198.738</ele>
        <time>2022-05-03T12:41:51Z</time>
      </trkpt>
      <trkpt lat="43.62633" lon="6.93451">
        <ele>199.828</ele>
        <time>2022-05-03T12:41:56Z</time>
      </trkpt>
      <trkpt lat="43.62631" lon="6.93441">
        <ele>199.964</ele>
        <time>2022-05-03T12:42:01Z</time>
      </trkpt>
      <trkpt lat="43.62627" lon="6.93433">
        <ele>201.506</ele>
        <time>2022-05-03T12:42:06Z</time>
      </trkpt>
      <trkpt lat="43.6262" lon="6.93423">
        <ele>204.8</ele>
        <time>2022-05-03T12:42:11Z</time>
      </trkpt>
      <trkpt lat="43.62615" lon="6.93416">
        <ele>204.223</ele>
        <time>2022-05-03T12:42:16Z</time>
      </trkpt>
      <trkpt lat="43.62609" lon="6.93407">
        <ele>205.939</ele>
        <time>2022-05-03T12:42:21Z</time>
      </trkpt>
      <trkpt lat="43.62602" lon="6.93403">
        <ele>202.04</ele>
        <time>2022-05-03T12:42:26Z</time>
      </trkpt>
      <trkpt lat="43.62595" lon="6.93396">
        <ele>203.388</ele>
        <time>2022-05-03T12:42:31Z</time>
      </trkpt>
      <trkpt lat="43.62588" lon="6.93395">
        <ele>203.074</ele>
        <time>2022-05-03T12:42:36Z</time>
      </trkpt>
      <trkpt lat="43.62581" lon="6.93391">
        <ele>202.761</ele>
        <time>2022-05-03T12:42:41Z</time>
      </trkpt>
      <trkpt lat="43.62574" lon="6.93388">
        <ele>203.036</ele>
        <time>2022-05-03T12:42:46Z</time>
      </trkpt>
      <trkpt lat="43.62565" lon="6.93386">
        <ele>203.224</ele>
        <time>2022-05-03T12:42:51Z</time>
      </trkpt>
      <trkpt lat="43.62558" lon="6.93389">
        <ele>202.897</ele>
        <time>2022-05-03T12:42:56Z</time>
      </trkpt>
      <trkpt lat="43.6255" lon="6.93391">
        <ele>201.936</ele>
        <time>2022-05-03T12:43:01Z</time>
      </trkpt>
      <trkpt lat="43.62543" lon="6.93389">
        <ele>199.737</ele>
        <time>2022-05-03T12:43:06Z</time>
      </trkpt>
      <trkpt lat="43.62537" lon="6.93389">
        <ele>196.988</ele>
        <time>2022-05-03T12:43:11Z</time>
      </trkpt>
      <trkpt lat="43.62529" lon="6.93388">
        <ele>198.63</ele>
        <time>2022-05-03T12:43:16Z</time>
      </trkpt>
      <trkpt lat="43.62533" lon="6.93381">
        <ele>195.901</ele>
        <time>2022-05-03T12:43:21Z</time>
      </trkpt>
      <trkpt lat="43.62541" lon="6.9338">
        <ele>196.421</ele>
        <time>2022-05-03T12:43:26Z</time>
      </trkpt>
      <trkpt lat="43.62547" lon="6.93375">
        <ele>194.966</ele>
        <time>2022-05-03T12:43:31Z</time>
      </trkpt>
      <trkpt lat="43.62543" lon="6.93367">
        <ele>195.186</ele>
        <time>2022-05-03T12:43:36Z</time>
      </trkpt>
      <trkpt lat="43.62536" lon="6.93367">
        <ele>195.927</ele>
        <time>2022-05-03T12:43:41Z</time>
      </trkpt>
      <trkpt lat="43.62528" lon="6.93371">
        <ele>194.423</ele>
        <time>2022-05-03T12:43:46Z</time>
      </trkpt>
      <trkpt lat="43.62521" lon="6.93374">
        <ele>195.499</ele>
        <time>2022-05-03T12:43:51Z</time>
      </trkpt>
      <trkpt lat="43.62514" lon="6.93374">
        <ele>194.927</ele>
        <time>2022-05-03T12:43:56Z</time>
      </trkpt>
      <trkpt lat="43.62507" lon="6.93375">
        <ele>195.744</ele>
        <time>2022-05-03T12:44:01Z</time>
      </trkpt>
      <trkpt lat="43.625" lon="6.93381">
        <ele>193.85</ele>
        <time>2022-05-03T12:44:06Z</time>
      </trkpt>
      <trkpt lat="43.62493" lon="6.93384">
        <ele>192.789</ele>
        <time>2022-05-03T12:44:11Z</time>
      </trkpt>
      <trkpt lat="43.62486" lon="6.93385">
        <ele>195.453</ele>
        <time>2022-05-03T12:44:16Z</time>
      </trkpt>
      <trkpt lat="43.62479" lon="6.93386">
        <ele>194.574</ele>
        <time>2022-05-03T12:44:21Z</time>
      </trkpt>
      <trkpt lat="43.62474" lon="6.93392">
        <ele>191.988</ele>
        <time>2022-05-03T12:44:26Z</time>
      </trkpt>
      <trkpt lat="43.62471" lon="6.93401">
        <ele>192.255</ele>
        <time>2022-05-03T12:44:31Z</time>
      </trkpt>
      <trkpt lat="43.62467" lon="6.93408">
        <ele>189.745</ele>
        <time>2022-05-03T12:44:36Z</time>
      </trkpt>
      <trkpt lat="43.62462" lon="6.93416">
        <ele>192.442</ele>
        <time>2022-05-03T12:44:41Z</time>
      </trkpt>
      <trkpt lat="43.62456" lon="6.93422">
        <ele>193.148</ele>
        <time>2022-05-03T12:44:46Z</time>
      </trkpt>
      <trkpt lat="43.6245" lon="6.93427">
        <ele>193.42</ele>
        <time>2022-05-03T12:44:51Z</time>
      </trkpt>
      <trkpt lat="43.62444" lon="6.9343">
        <ele>193.723</ele>
        <time>2022-05-03T12:44:57Z</time>
      </trkpt>
      <trkpt lat="43.62437" lon="6.93429">
        <ele>192.838</ele>
        <time>2022-05-03T12:45:04Z</time>
      </trkpt>
      <trkpt lat="43.62433" lon="6.93422">
        <ele>194.02</ele>
        <time>2022-05-03T12:45:10Z</time>
      </trkpt>
      <trkpt lat="43.62436" lon="6.93412">
        <ele>189.442</ele>
        <time>2022-05-03T12:45:19Z</time>
      </trkpt>
      <trkpt lat="43.62442" lon="6.93406">
        <ele>189.845</ele>
        <time>2022-05-03T12:45:25Z</time>
      </trkpt>
      <trkpt lat="43.62447" lon="6.93401">
        <ele>187.715</ele>
        <time>2022-05-03T12:45:30Z</time>
      </trkpt>
      <trkpt lat="43.62452" lon="6.93393">
        <ele>188.28</ele>
        <time>2022-05-03T12:45:36Z</time>
      </trkpt>
      <trkpt lat="43.62458" lon="6.93389">
        <ele>187.496</ele>
        <time>2022-05-03T12:45:42Z</time>
      </trkpt>
      <trkpt lat="43.62466" lon="6.93389">
        <ele>191.431</ele>
        <time>2022-05-03T12:45:47Z</time>
      </trkpt>
      <trkpt lat="43.62473" lon="6.9339">
        <ele>192.412</ele>
        <time>2022-05-03T12:45:52Z</time>
      </trkpt>
      <trkpt lat="43.62479" lon="6.93394">
        <ele>194.21</ele>
        <time>2022-05-03T12:45:58Z</time>
      </trkpt>
      <trkpt lat="43.62486" lon="6.93393">
        <ele>193.52</ele>
        <time>2022-05-03T12:46:05Z</time>
      </trkpt>
      <trkpt lat="43.62493" lon="6.93391">
        <ele>192.21</ele>
        <time>2022-05-03T12:46:11Z</time>
      </trkpt>
      <trkpt lat="43.625" lon="6.93388">
        <ele>192.606</ele>
        <time>2022-05-03T12:46:17Z</time>
      </trkpt>
      <trkpt lat="43.62506" lon="6.93385">
        <ele>187.359</ele>
        <time>2022-05-03T12:46:22Z</time>
      </trkpt>
      <trkpt lat="43.62513" lon="6.93384">
        <ele>188.12</ele>
        <time>2022-05-03T12:46:27Z</time>
      </trkpt>
      <trkpt lat="43.62524" lon="6.93379">
        <ele>192.647</ele>
        <time>2022-05-03T12:46:32Z</time>
      </trkpt>
      <trkpt lat="43.62532" lon="6.93375">
        <ele>191.861</ele>
        <time>2022-05-03T12:46:37Z</time>
      </trkpt>
      <trkpt lat="43.62539" lon="6.93373">
        <ele>192.499</ele>
        <time>2022-05-03T12:46:42Z</time>
      </trkpt>
      <trkpt lat="43.62548" lon="6.93371">
        <ele>195.063</ele>
        <time>2022-05-03T12:46:47Z</time>
      </trkpt>
      <trkpt lat="43.62555" lon="6.93371">
        <ele>194.766</ele>
        <time>2022-05-03T12:46:52Z</time>
      </trkpt>
      <trkpt lat="43.62562" lon="6.93368">
        <ele>194.094</ele>
        <time>2022-05-03T12:46:57Z</time>
      </trkpt>
      <trkpt lat="43.6257" lon="6.93366">
        <ele>196.306</ele>
        <time>2022-05-03T12:47:02Z</time>
      </trkpt>
      <trkpt lat="43.62577" lon="6.93364">
        <ele>197.725</ele>
        <time>2022-05-03T12:47:07Z</time>
      </trkpt>
      <trkpt lat="43.62585" lon="6.93363">
        <ele>199.138</ele>
        <time>2022-05-03T12:47:12Z</time>
      </trkpt>
      <trkpt lat="43.62591" lon="6.93366">
        <ele>198.704</ele>
        <time>2022-05-03T12:47:17Z</time>
      </trkpt>
      <trkpt lat="43.62598" lon="6.93369">
        <ele>198.354</ele>
        <time>2022-05-03T12:47:22Z</time>
      </trkpt>
      <trkpt lat="43.62605" lon="6.93373">
        <ele>196.844</ele>
        <time>2022-05-03T12:47:27Z</time>
      </trkpt>
      <trkpt lat="43.62612" lon="6.93376">
        <ele>198.434</ele>
        <time>2022-05-03T12:47:32Z</time>
      </trkpt>
      <trkpt lat="43.62618" lon="6.93381">
        <ele>196.442</ele>
        <time>2022-05-03T12:47:37Z</time>
      </trkpt>
      <trkpt lat="43.62625" lon="6.93384">
        <ele>196.67</ele>
        <time>2022-05-03T12:47:42Z</time>
      </trkpt>
      <trkpt lat="43.62632" lon="6.9339">
        <ele>194.034</ele>
        <time>2022-05-03T12:47:47Z</time>
      </trkpt>
      <trkpt lat="43.62638" lon="6.93396">
        <ele>195.079</ele>
        <time>2022-05-03T12:47:52Z</time>
      </trkpt>
      <trkpt lat="43.62644" lon="6.93402">
        <ele>194.191</ele>
        <time>2022-05-03T12:47:57Z</time>
      </trkpt>
      <trkpt lat="43.62651" lon="6.93407">
        <ele>195.207</ele>
        <time>2022-05-03T12:48:02Z</time>
      </trkpt>
      <trkpt lat="43.62658" lon="6.93412">
        <ele>195.209</ele>
        <time>2022-05-03T12:48:07Z</time>
      </trkpt>
      <trkpt lat="43.62664" lon="6.93418">
        <ele>192.903</ele>
        <time>2022-05-03T12:48:12Z</time>
      </trkpt>
      <trkpt lat="43.62671" lon="6.93423">
        <ele>194.008</ele>
        <time>2022-05-03T12:48:17Z</time>
      </trkpt>
      <trkpt lat="43.62678" lon="6.93429">
        <ele>196.137</ele>
        <time>2022-05-03T12:48:22Z</time>
      </trkpt>
      <trkpt lat="43.62684" lon="6.93434">
        <ele>194.124</ele>
        <time>2022-05-03T12:48:27Z</time>
      </trkpt>
      <trkpt lat="43.6269" lon="6.93441">
        <ele>192.617</ele>
        <time>2022-05-03T12:48:32Z</time>
      </trkpt>
      <trkpt lat="43.62696" lon="6.93445">
        <ele>191.168</ele>
        <time>2022-05-03T12:48:37Z</time>
      </trkpt>
      <trkpt lat="43.62703" lon="6.9345">
        <ele>194.229</ele>
        <time>2022-05-03T12:48:42Z</time>
      </trkpt>
      <trkpt lat="43.62709" lon="6.93455">
        <ele>195.854</ele>
        <time>2022-05-03T12:48:47Z</time>
      </trkpt>
      <trkpt lat="43.62714" lon="6.93461">
        <ele>197.154</ele>
        <time>2022-05-03T12:48:52Z</time>
      </trkpt>
      <trkpt lat="43.6272" lon="6.93466">
        <ele>196.31</ele>
        <time>2022-05-03T12:48:57Z</time>
      </trkpt>
      <trkpt lat="43.62726" lon="6.93471">
        <ele>195.218</ele>
        <time>2022-05-03T12:49:02Z</time>
      </trkpt>
      <trkpt lat="43.62733" lon="6.93476">
        <ele>196.723</ele>
        <time>2022-05-03T12:49:07Z</time>
      </trkpt>
      <trkpt lat="43.62739" lon="6.93482">
        <ele>196.179</ele>
        <time>2022-05-03T12:49:12Z</time>
      </trkpt>
      <trkpt lat="43.62746" lon="6.93487">
        <ele>194.718</ele>
        <time>2022-05-03T12:49:17Z</time>
      </trkpt>
      <trkpt lat="43.62753" lon="6.93491">
        <ele>192.045</ele>
        <time>2022-05-03T12:49:22Z</time>
      </trkpt>
      <trkpt lat="43.62759" lon="6.93496">
        <ele>193.352</ele>
        <time>2022-05-03T12:49:27Z</time>
      </trkpt>
      <trkpt lat="43.62767" lon="6.93497">
        <ele>193.104</ele>
        <time>2022-05-03T12:49:32Z</time>
      </trkpt>
      <trkpt lat="43.62772" lon="6.93505">
        <ele>197.431</ele>
        <time>2022-05-03T12:49:37Z</time>
      </trkpt>
      <trkpt lat="43.62771" lon="6.93514">
        <ele>196.86</ele>
        <time>2022-05-03T12:49:42Z</time>
      </trkpt>
      <trkpt lat="43.62766" lon="6.93521">
        <ele>199.357</ele>
        <time>2022-05-03T12:49:48Z</time>
      </trkpt>
      <trkpt lat="43.62759" lon="6.93519">
        <ele>197.473</ele>
        <time>2022-05-03T12:49:54Z</time>
      </trkpt>
      <trkpt lat="43.62752" lon="6.93516">
        <ele>198.706</ele>
        <time>2022-05-03T12:50:00Z</time>
      </trkpt>
      <trkpt lat="43.62745" lon="6.93514">
        <ele>198.571</ele>
        <time>2022-05-03T12:50:05Z</time>
      </trkpt>
      <trkpt lat="43.62738" lon="6.93511">
        <ele>198.41</ele>
        <time>2022-05-03T12:50:11Z</time>
      </trkpt>
      <trkpt lat="43.62732" lon="6.93507">
        <ele>201.211</ele>
        <time>2022-05-03T12:50:16Z</time>
      </trkpt>
      <trkpt lat="43.62725" lon="6.93504">
        <ele>203.822</ele>
        <time>2022-05-03T12:50:21Z</time>
      </trkpt>
      <trkpt lat="43.62719" lon="6.93497">
        <ele>202.14</ele>
        <time>2022-05-03T12:50:27Z</time>
      </trkpt>
      <trkpt lat="43.62714" lon="6.9349">
        <ele>202.195</ele>
        <time>2022-05-03T12:50:32Z</time>
      </trkpt>
      <trkpt lat="43.62709" lon="6.93485">
        <ele>201.335</ele>
        <time>2022-05-03T12:50:37Z</time>
      </trkpt>
      <trkpt lat="43.62703" lon="6.93479">
        <ele>204.028</ele>
        <time>2022-05-03T12:50:42Z</time>
      </trkpt>
      <trkpt lat="43.62697" lon="6.93474">
        <ele>201.972</ele>
        <time>2022-05-03T12:50:47Z</time>
      </trkpt>
      <trkpt lat="43.6269" lon="6.93469">
        <ele>199.058</ele>
        <time>2022-05-03T12:50:52Z</time>
      </trkpt>
      <trkpt lat="43.62685" lon="6.93463">
        <ele>200.579</ele>
        <time>2022-05-03T12:50:57Z</time>
      </trkpt>
      <trkpt lat="43.6268" lon="6.93456">
        <ele>201.996</ele>
        <time>2022-05-03T12:51:02Z</time>
      </trkpt>
      <trkpt lat="43.62674" lon="6.93452">
        <ele>200.483</ele>
        <time>2022-05-03T12:51:07Z</time>
      </trkpt>
      <trkpt lat="43.62669" lon="6.93443">
        <ele>200.556</ele>
        <time>2022-05-03T12:51:12Z</time>
      </trkpt>
      <trkpt lat="43.62665" lon="6.93436">
        <ele>200.765</ele>
        <time>2022-05-03T12:51:17Z</time>
      </trkpt>
      <trkpt lat="43.62658" lon="6.93431">
        <ele>199.75</ele>
        <time>2022-05-03T12:51:22Z</time>
      </trkpt>
      <trkpt lat="43.62651" lon="6.93427">
        <ele>199.704</ele>
        <time>2022-05-03T12:51:27Z</time>
      </trkpt>
      <trkpt lat="43.62645" lon="6.93422">
        <ele>200.992</ele>
        <time>2022-05-03T12:51:32Z</time>
      </trkpt>
      <trkpt lat="43.62638" lon="6.93418">
        <ele>200.45</ele>
        <time>2022-05-03T12:51:37Z</time>
      </trkpt>
      <trkpt lat="43.62631" lon="6.93413">
        <ele>197.827</ele>
        <time>2022-05-03T12:51:42Z</time>
      </trkpt>
      <trkpt lat="43.62624" lon="6.93411">
        <ele>195.785</ele>
        <time>2022-05-03T12:51:47Z</time>
      </trkpt>
      <trkpt lat="43.62617" lon="6.93407">
        <ele>199.144</ele>
        <time>2022-05-03T12:51:52Z</time>
      </trkpt>
      <trkpt lat="43.62609" lon="6.93403">
        <ele>199.551</ele>
        <time>2022-05-03T12:51:57Z</time>
      </trkpt>
      <trkpt lat="43.6261" lon="6.93413">
        <ele>199.938</ele>
        <time>2022-05-03T12:52:03Z</time>
      </trkpt>
      <trkpt lat="43.62615" lon="6.9342">
        <ele>196.2</ele>
        <time>2022-05-03T12:52:08Z</time>
      </trkpt>
      <trkpt lat="43.62621" lon="6.93428">
        <ele>195.576</ele>
        <time>2022-05-03T12:52:13Z</time>
      </trkpt>
      <trkpt lat="43.62626" lon="6.93434">
        <ele>196.631</ele>
        <time>2022-05-03T12:52:18Z</time>
      </trkpt>
      <trkpt lat="43.62629" lon="6.93442">
        <ele>198.448</ele>
        <time>2022-05-03T12:52:23Z</time>
      </trkpt>
      <trkpt lat="43.62622" lon="6.93443">
        <ele>199.846</ele>
        <time>2022-05-03T12:52:31Z</time>
      </trkpt>
      <trkpt lat="43.62616" lon="6.93437">
        <ele>199.254</ele>
        <time>2022-05-03T12:52:36Z</time>
      </trkpt>
      <trkpt lat="43.62611" lon="6.93432">
        <ele>198.415</ele>
        <time>2022-05-03T12:52:41Z</time>
      </trkpt>
      <trkpt lat="43.62604" lon="6.93429">
        <ele>199.499</ele>
        <time>2022-05-03T12:52:46Z</time>
      </trkpt>
      <trkpt lat="43.62597" lon="6.93428">
        <ele>197.504</ele>
        <time>2022-05-03T12:52:51Z</time>
      </trkpt>
      <trkpt lat="43.62589" lon="6.93426">
        <ele>199.177</ele>
        <time>2022-05-03T12:52:56Z</time>
      </trkpt>
      <trkpt lat="43.62582" lon="6.93427">
        <ele>201.193</ele>
        <time>2022-05-03T12:53:01Z</time>
      </trkpt>
      <trkpt lat="43.62574" lon="6.93428">
        <ele>199.258</ele>
        <time>2022-05-03T12:53:06Z</time>
      </trkpt>
      <trkpt lat="43.62565" lon="6.93429">
        <ele>199.169</ele>
        <time>2022-05-03T12:53:11Z</time>
      </trkpt>
      <trkpt lat="43.62557" lon="6.93429">
        <ele>200.681</ele>
        <time>2022-05-03T12:53:16Z</time>
      </trkpt>
      <trkpt lat="43.62549" lon="6.93431">
        <ele>201.797</ele>
        <time>2022-05-03T12:53:21Z</time>
      </trkpt>
      <trkpt lat="43.6254" lon="6.93432">
        <ele>202.891</ele>
        <time>2022-05-03T12:53:26Z</time>
      </trkpt>
      <trkpt lat="43.62533" lon="6.93434">
        <ele>201.507</ele>
        <time>2022-05-03T12:53:31Z</time>
      </trkpt>
      <trkpt lat="43.62525" lon="6.93438">
        <ele>200.885</ele>
        <time>2022-05-03T12:53:36Z</time>
      </trkpt>
      <trkpt lat="43.62518" lon="6.93442">
        <ele>201.517</ele>
        <time>2022-05-03T12:53:41Z</time>
      </trkpt>
      <trkpt lat="43.6251" lon="6.93446">
        <ele>201.043</ele>
        <time>2022-05-03T12:53:46Z</time>
      </trkpt>
      <trkpt lat="43.62502" lon="6.93449">
        <ele>201.289</ele>
        <time>2022-05-03T12:53:51Z</time>
      </trkpt>
      <trkpt lat="43.62496" lon="6.93454">
        <ele>200.923</ele>
        <time>2022-05-03T12:53:56Z</time>
      </trkpt>
      <trkpt lat="43.62488" lon="6.93459">
        <ele>200.676</ele>
        <time>2022-05-03T12:54:01Z</time>
      </trkpt>
      <trkpt lat="43.62481" lon="6.93463">
        <ele>200.618</ele>
        <time>2022-05-03T12:54:06Z</time>
      </trkpt>
      <trkpt lat="43.62474" lon="6.93467">
        <ele>203.067</ele>
        <time>2022-05-03T12:54:11Z</time>
      </trkpt>
      <trkpt lat="43.62474" lon="6.93457">
        <ele>201.94</ele>
        <time>2022-05-03T12:54:17Z</time>
      </trkpt>
      <trkpt lat="43.62478" lon="6.93448">
        <ele>200.726</ele>
        <time>2022-05-03T12:54:22Z</time>
      </trkpt>
      <trkpt lat="43.62484" lon="6.93442">
        <ele>200.288</ele>
        <time>2022-05-03T12:54:27Z</time>
      </trkpt>
      <trkpt lat="43.62492" lon="6.93437">
        <ele>198.861</ele>
        <time>2022-05-03T12:54:32Z</time>
      </trkpt>
      <trkpt lat="43.62495" lon="6.93428">
        <ele>196.585</ele>
        <time>2022-05-03T12:54:38Z</time>
      </trkpt>
      <trkpt lat="43.625" lon="6.93423">
        <ele>195.497</ele>
        <time>2022-05-03T12:54:43Z</time>
      </trkpt>
      <trkpt lat="43.62504" lon="6.93414">
        <ele>196.61</ele>
        <time>2022-05-03T12:54:48Z</time>
      </trkpt>
      <trkpt lat="43.6251" lon="6.93408">
        <ele>195.904</ele>
        <time>2022-05-03T12:54:53Z</time>
      </trkpt>
      <trkpt lat="43.62516" lon="6.93401">
        <ele>196.442</ele>
        <time>2022-05-03T12:54:58Z</time>
      </trkpt>
      <trkpt lat="43.62524" lon="6.93395">
        <ele>193.622</ele>
        <time>2022-05-03T12:55:04Z</time>
      </trkpt>
      <trkpt lat="43.6253" lon="6.93391">
        <ele>192.07</ele>
        <time>2022-05-03T12:55:09Z</time>
      </trkpt>
      <trkpt lat="43.62536" lon="6.93386">
        <ele>191.654</ele>
        <time>2022-05-03T12:55:14Z</time>
      </trkpt>
      <trkpt lat="43.62544" lon="6.93379">
        <ele>194.437</ele>
        <time>2022-05-03T12:55:20Z</time>
      </trkpt>
      <trkpt lat="43.62552" lon="6.93376">
        <ele>195.131</ele>
        <time>2022-05-03T12:55:25Z</time>
      </trkpt>
      <trkpt lat="43.6256" lon="6.93369">
        <ele>193.685</ele>
        <time>2022-05-03T12:55:30Z</time>
      </trkpt>
      <trkpt lat="43.62569" lon="6.93363">
        <ele>193.697</ele>
        <time>2022-05-03T12:55:35Z</time>
      </trkpt>
      <trkpt lat="43.62577" lon="6.9336">
        <ele>193.649</ele>
        <time>2022-05-03T12:55:40Z</time>
      </trkpt>
      <trkpt lat="43.62584" lon="6.93361">
        <ele>193.877</ele>
        <time>2022-05-03T12:55:45Z</time>
      </trkpt>
      <trkpt lat="43.62592" lon="6.93362">
        <ele>194.867</ele>
        <time>2022-05-03T12:55:50Z</time>
      </trkpt>
      <trkpt lat="43.62597" lon="6.93368">
        <ele>192.692</ele>
        <time>2022-05-03T12:55:55Z</time>
      </trkpt>
      <trkpt lat="43.62603" lon="6.93371">
        <ele>191.567</ele>
        <time>2022-05-03T12:56:00Z</time>
      </trkpt>
      <trkpt lat="43.6261" lon="6.93375">
        <ele>193.649</ele>
        <time>2022-05-03T12:56:05Z</time>
      </trkpt>
      <trkpt lat="43.62617" lon="6.93378">
        <ele>194.072</ele>
        <time>2022-05-03T12:56:10Z</time>
      </trkpt>
      <trkpt lat="43.62623" lon="6.93382">
        <ele>193.83</ele>
        <time>2022-05-03T12:56:15Z</time>
      </trkpt>
      <trkpt lat="43.6263" lon="6.93387">
        <ele>193.191</ele>
        <time>2022-05-03T12:56:21Z</time>
      </trkpt>
      <trkpt lat="43.62636" lon="6.93393">
        <ele>193.117</ele>
        <time>2022-05-03T12:56:27Z</time>
      </trkpt>
      <trkpt lat="43.62643" lon="6.93399">
        <ele>192.176</ele>
        <time>2022-05-03T12:56:32Z</time>
      </trkpt>
      <trkpt lat="43.6265" lon="6.93404">
        <ele>191.949</ele>
        <time>2022-05-03T12:56:37Z</time>
      </trkpt>
      <trkpt lat="43.62657" lon="6.9341">
        <ele>194.497</ele>
        <time>2022-05-03T12:56:42Z</time>
      </trkpt>
      <trkpt lat="43.62665" lon="6.93415">
        <ele>196.389</ele>
        <time>2022-05-03T12:56:48Z</time>
      </trkpt>
      <trkpt lat="43.62672" lon="6.93421">
        <ele>197.326</ele>
        <time>2022-05-03T12:56:53Z</time>
      </trkpt>
      <trkpt lat="43.62678" lon="6.93427">
        <ele>194.626</ele>
        <time>2022-05-03T12:56:58Z</time>
      </trkpt>
      <trkpt lat="43.62687" lon="6.93434">
        <ele>191.321</ele>
        <time>2022-05-03T12:57:04Z</time>
      </trkpt>
      <trkpt lat="43.62694" lon="6.93439">
        <ele>191.099</ele>
        <time>2022-05-03T12:57:09Z</time>
      </trkpt>
      <trkpt lat="43.627" lon="6.93444">
        <ele>189.796</ele>
        <time>2022-05-03T12:57:15Z</time>
      </trkpt>
      <trkpt lat="43.62706" lon="6.9345">
        <ele>192.094</ele>
        <time>2022-05-03T12:57:21Z</time>
      </trkpt>
      <trkpt lat="43.62711" lon="6.93458">
        <ele>195.34</ele>
        <time>2022-05-03T12:57:26Z</time>
      </trkpt>
      <trkpt lat="43.6272" lon="6.93464">
        <ele>192.786</ele>
        <time>2022-05-03T12:57:32Z</time>
      </trkpt>
      <trkpt lat="43.62727" lon="6.93471">
        <ele>192.994</ele>
        <time>2022-05-03T12:57:37Z</time>
      </trkpt>
      <trkpt lat="43.62734" lon="6.93476">
        <ele>192.147</ele>
        <time>2022-05-03T12:57:42Z</time>
      </trkpt>
      <trkpt lat="43.62741" lon="6.93484">
        <ele>189.463</ele>
        <time>2022-05-03T12:57:48Z</time>
      </trkpt>
      <trkpt lat="43.62747" lon="6.93488">
        <ele>188.65</ele>
        <time>2022-05-03T12:57:53Z</time>
      </trkpt>
      <trkpt lat="43.62753" lon="6.93493">
        <ele>188.89</ele>
        <time>2022-05-03T12:57:58Z</time>
      </trkpt>
      <trkpt lat="43.62762" lon="6.93497">
        <ele>189.069</ele>
        <time>2022-05-03T12:58:04Z</time>
      </trkpt>
      <trkpt lat="43.62769" lon="6.93498">
        <ele>193.029</ele>
        <time>2022-05-03T12:58:09Z</time>
      </trkpt>
      <trkpt lat="43.62777" lon="6.93498">
        <ele>192.397</ele>
        <time>2022-05-03T12:58:14Z</time>
      </trkpt>
      <trkpt lat="43.62786" lon="6.935">
        <ele>191.855</ele>
        <time>2022-05-03T12:58:20Z</time>
      </trkpt>
      <trkpt lat="43.62793" lon="6.93503">
        <ele>189.594</ele>
        <time>2022-05-03T12:58:26Z</time>
      </trkpt>
      <trkpt lat="43.62802" lon="6.93503">
        <ele>188.167</ele>
        <time>2022-05-03T12:58:32Z</time>
      </trkpt>
      <trkpt lat="43.62808" lon="6.93501">
        <ele>191.131</ele>
        <time>2022-05-03T12:58:37Z</time>
      </trkpt>
      <trkpt lat="43.62815" lon="6.935">
        <ele>191.288</ele>
        <time>2022-05-03T12:58:42Z</time>
      </trkpt>
      <trkpt lat="43.62823" lon="6.93499">
        <ele>190.783</ele>
        <time>2022-05-03T12:58:48Z</time>
      </trkpt>
      <trkpt lat="43.6283" lon="6.93499">
        <ele>191.419</ele>
        <time>2022-05-03T12:58:53Z</time>
      </trkpt>
      <trkpt lat="43.62838" lon="6.935">
        <ele>189.62</ele>
        <time>2022-05-03T12:58:58Z</time>
      </trkpt>
      <trkpt lat="43.62847" lon="6.93502">
        <ele>190.928</ele>
        <time>2022-05-03T12:59:04Z</time>
      </trkpt>
      <trkpt lat="43.62855" lon="6.93502">
        <ele>191.364</ele>
        <time>2022-05-03T12:59:09Z</time>
      </trkpt>
      <trkpt lat="43.62863" lon="6.93503">
        <ele>193.126</ele>
        <time>2022-05-03T12:59:14Z</time>
      </trkpt>
      <trkpt lat="43.62872" lon="6.93505">
        <ele>194.221</ele>
        <time>2022-05-03T12:59:20Z</time>
      </trkpt>
      <trkpt lat="43.62879" lon="6.93507">
        <ele>193.965</ele>
        <time>2022-05-03T12:59:25Z</time>
      </trkpt>
      <trkpt lat="43.62886" lon="6.93508">
        <ele>197.354</ele>
        <time>2022-05-03T12:59:30Z</time>
      </trkpt>
      <trkpt lat="43.62892" lon="6.93511">
        <ele>193.38</ele>
        <time>2022-05-03T12:59:35Z</time>
      </trkpt>
      <trkpt lat="43.629" lon="6.93513">
        <ele>191.485</ele>
        <time>2022-05-03T12:59:40Z</time>
      </trkpt>
      <trkpt lat="43.62906" lon="6.93516">
        <ele>193.423</ele>
        <time>2022-05-03T12:59:45Z</time>
      </trkpt>
      <trkpt lat="43.62913" lon="6.9352">
        <ele>192.062</ele>
        <time>2022-05-03T12:59:50Z</time>
      </trkpt>
      <trkpt lat="43.6292" lon="6.93525">
        <ele>191.89</ele>
        <time>2022-05-03T12:59:56Z</time>
      </trkpt>
      <trkpt lat="43.62927" lon="6.93529">
        <ele>191.923</ele>
        <time>2022-05-03T13:00:01Z</time>
      </trkpt>
      <trkpt lat="43.62933" lon="6.93532">
        <ele>192.092</ele>
        <time>2022-05-03T13:00:06Z</time>
      </trkpt>
      <trkpt lat="43.62942" lon="6.93534">
        <ele>188.061</ele>
        <time>2022-05-03T13:00:12Z</time>
      </trkpt>
      <trkpt lat="43.62951" lon="6.93536">
        <ele>189.977</ele>
        <time>2022-05-03T13:00:17Z</time>
      </trkpt>
      <trkpt lat="43.62958" lon="6.93541">
        <ele>187.979</ele>
        <time>2022-05-03T13:00:22Z</time>
      </trkpt>
      <trkpt lat="43.62966" lon="6.93544">
        <ele>188.54</ele>
        <time>2022-05-03T13:00:28Z</time>
      </trkpt>
      <trkpt lat="43.62972" lon="6.93549">
        <ele>189.816</ele>
        <time>2022-05-03T13:00:33Z</time>
      </trkpt>
      <trkpt lat="43.62978" lon="6.93555">
        <ele>191.034</ele>
        <time>2022-05-03T13:00:38Z</time>
      </trkpt>
      <trkpt lat="43.62986" lon="6.9356">
        <ele>193.083</ele>
        <time>2022-05-03T13:00:44Z</time>
      </trkpt>
      <trkpt lat="43.62991" lon="6.93566">
        <ele>194.309</ele>
        <time>2022-05-03T13:00:49Z</time>
      </trkpt>
      <trkpt lat="43.62984" lon="6.93565">
        <ele>196.009</ele>
        <time>2022-05-03T13:00:57Z</time>
      </trkpt>
      <trkpt lat="43.62977" lon="6.93568">
        <ele>197.529</ele>
        <time>2022-05-03T13:01:04Z</time>
      </trkpt>
      <trkpt lat="43.6297" lon="6.9357">
        <ele>198.106</ele>
        <time>2022-05-03T13:01:10Z</time>
      </trkpt>
      <trkpt lat="43.62963" lon="6.93571">
        <ele>197.899</ele>
        <time>2022-05-03T13:01:16Z</time>
      </trkpt>
      <trkpt lat="43.62957" lon="6.93572">
        <ele>200.037</ele>
        <time>2022-05-03T13:01:21Z</time>
      </trkpt>
      <trkpt lat="43.62954" lon="6.93581">
        <ele>200.745</ele>
        <time>2022-05-03T13:01:26Z</time>
      </trkpt>
      <trkpt lat="43.62959" lon="6.93592">
        <ele>201.63</ele>
        <time>2022-05-03T13:01:32Z</time>
      </trkpt>
      <trkpt lat="43.62967" lon="6.93595">
        <ele>200.936</ele>
        <time>2022-05-03T13:01:37Z</time>
      </trkpt>
      <trkpt lat="43.62974" lon="6.93599">
        <ele>203.241</ele>
        <time>2022-05-03T13:01:44Z</time>
      </trkpt>
      <trkpt lat="43.62981" lon="6.93602">
        <ele>202.568</ele>
        <time>2022-05-03T13:01:49Z</time>
      </trkpt>
      <trkpt lat="43.62989" lon="6.93607">
        <ele>203.193</ele>
        <time>2022-05-03T13:01:54Z</time>
      </trkpt>
      <trkpt lat="43.62997" lon="6.93614">
        <ele>202.663</ele>
        <time>2022-05-03T13:02:00Z</time>
      </trkpt>
      <trkpt lat="43.63002" lon="6.93622">
        <ele>201.997</ele>
        <time>2022-05-03T13:02:05Z</time>
      </trkpt>
      <trkpt lat="43.63009" lon="6.93626">
        <ele>201.03</ele>
        <time>2022-05-03T13:02:10Z</time>
      </trkpt>
      <trkpt lat="43.63016" lon="6.9363">
        <ele>200.838</ele>
        <time>2022-05-03T13:02:15Z</time>
      </trkpt>
      <trkpt lat="43.63022" lon="6.93636">
        <ele>202.53</ele>
        <time>2022-05-03T13:02:20Z</time>
      </trkpt>
      <trkpt lat="43.6303" lon="6.93643">
        <ele>202.687</ele>
        <time>2022-05-03T13:02:25Z</time>
      </trkpt>
      <trkpt lat="43.63037" lon="6.93645">
        <ele>201.56</ele>
        <time>2022-05-03T13:02:30Z</time>
      </trkpt>
      <trkpt lat="43.63044" lon="6.93644">
        <ele>200.246</ele>
        <time>2022-05-03T13:02:35Z</time>
      </trkpt>
      <trkpt lat="43.6305" lon="6.93649">
        <ele>199.97</ele>
        <time>2022-05-03T13:02:40Z</time>
      </trkpt>
      <trkpt lat="43.63047" lon="6.93658">
        <ele>200.881</ele>
        <time>2022-05-03T13:02:45Z</time>
      </trkpt>
      <trkpt lat="43.63044" lon="6.93667">
        <ele>201.508</ele>
        <time>2022-05-03T13:02:50Z</time>
      </trkpt>
      <trkpt lat="43.63043" lon="6.93677">
        <ele>203.781</ele>
        <time>2022-05-03T13:02:56Z</time>
      </trkpt>
      <trkpt lat="43.63047" lon="6.93686">
        <ele>204.396</ele>
        <time>2022-05-03T13:03:01Z</time>
      </trkpt>
      <trkpt lat="43.63052" lon="6.93692">
        <ele>205.222</ele>
        <time>2022-05-03T13:03:06Z</time>
      </trkpt>
      <trkpt lat="43.63058" lon="6.93698">
        <ele>205.381</ele>
        <time>2022-05-03T13:03:11Z</time>
      </trkpt>
      <trkpt lat="43.63064" lon="6.93704">
        <ele>207.065</ele>
        <time>2022-05-03T13:03:16Z</time>
      </trkpt>
      <trkpt lat="43.63068" lon="6.93712">
        <ele>209.378</ele>
        <time>2022-05-03T13:03:21Z</time>
      </trkpt>
      <trkpt lat="43.63074" lon="6.93717">
        <ele>210.252</ele>
        <time>2022-05-03T13:03:26Z</time>
      </trkpt>
      <trkpt lat="43.63084" lon="6.93722">
        <ele>210.84</ele>
        <time>2022-05-03T13:03:32Z</time>
      </trkpt>
      <trkpt lat="43.6309" lon="6.93725">
        <ele>211.226</ele>
        <time>2022-05-03T13:03:37Z</time>
      </trkpt>
      <trkpt lat="43.63097" lon="6.93726">
        <ele>210.729</ele>
        <time>2022-05-03T13:03:42Z</time>
      </trkpt>
      <trkpt lat="43.63102" lon="6.93721">
        <ele>210.073</ele>
        <time>2022-05-03T13:03:49Z</time>
      </trkpt>
      <trkpt lat="43.63102" lon="6.9372">
        <ele>209.827</ele>
        <time>2022-05-03T13:04:23Z</time>
      </trkpt>
    </trkseg>
  </trk>
</gpx>